createdAt,value
2017-12-10T17:00:10.379Z,39.88
2017-12-10T17:02:36.851Z,39.82
2017-12-10T17:05:03.328Z,39.82
2017-12-10T17:07:29.825Z,39.83
2017-12-10T17:09:56.301Z,39.82
2017-12-10T17:12:22.802Z,39.80
2017-12-10T17:14:49.279Z,39.83
2017-12-10T17:17:15.706Z,39.72
2017-12-10T17:21:01.005Z,40.16
2017-12-10T17:23:27.505Z,41.08
2017-12-10T17:25:53.987Z,41.35
2017-12-10T17:28:20.456Z,41.38
2017-12-10T17:30:46.959Z,41.26
2017-12-10T17:33:13.436Z,41.16
2017-12-10T17:35:40.236Z,41.09
2017-12-10T17:38:06.680Z,41.04
2017-12-10T17:40:33.149Z,40.97
2017-12-10T17:42:59.652Z,40.95
2017-12-10T17:45:26.136Z,41.10
2017-12-10T17:47:52.649Z,40.98
2017-12-10T17:50:19.125Z,41.09
2017-12-10T17:52:45.637Z,41.09
2017-12-10T17:55:12.116Z,41.19
2017-12-10T17:57:38.636Z,41.19
2017-12-10T18:00:05.114Z,41.16
2017-12-10T18:02:31.582Z,41.25
2017-12-10T18:04:57.996Z,41.33
2017-12-10T18:07:24.483Z,41.30
2017-12-10T18:09:50.892Z,41.34
2017-12-10T18:12:17.305Z,41.38
2017-12-10T18:14:43.743Z,41.12
2017-12-10T18:17:10.160Z,41.21
2017-12-10T18:19:36.600Z,41.06
2017-12-10T18:22:03.020Z,41.05
2017-12-10T18:24:29.465Z,41.08
2017-12-10T18:26:55.885Z,41.03
2017-12-10T18:29:22.325Z,40.97
2017-12-10T18:31:48.741Z,41.01
2017-12-10T18:34:15.454Z,40.87
2017-12-10T18:36:41.877Z,40.90
2017-12-10T18:39:08.292Z,40.87
2017-12-10T18:41:34.741Z,40.88
2017-12-10T18:44:01.160Z,41.02
2017-12-10T18:46:27.577Z,40.94
2017-12-10T18:48:54.018Z,40.99
2017-12-10T18:51:20.435Z,41.04
2017-12-10T18:53:46.898Z,40.88
2017-12-10T18:56:13.361Z,41.13
2017-12-10T18:58:40.044Z,41.01
2017-12-10T19:01:06.459Z,41.00
2017-12-10T19:03:32.877Z,40.84
2017-12-10T19:05:59.331Z,41.13
2017-12-10T19:08:25.737Z,41.14
2017-12-10T19:10:52.158Z,41.23
2017-12-10T19:13:18.709Z,41.06
2017-12-10T19:15:45.130Z,41.14
2017-12-10T19:18:11.546Z,41.09
2017-12-10T19:20:37.989Z,41.09
2017-12-10T19:23:04.403Z,41.24
2017-12-10T19:25:30.894Z,41.18
2017-12-10T19:27:57.311Z,41.20
2017-12-10T19:30:23.815Z,41.23
2017-12-10T19:32:50.259Z,41.16
2017-12-10T19:35:16.683Z,40.16
2017-12-10T19:37:43.133Z,40.24
2017-12-10T19:40:09.603Z,40.18
2017-12-10T19:42:35.975Z,40.89
2017-12-10T19:45:02.414Z,39.85
2017-12-10T19:47:28.839Z,39.36
2017-12-10T19:49:55.286Z,38.74
2017-12-10T19:52:21.727Z,39.45
2017-12-10T19:54:48.389Z,38.84
2017-12-10T19:57:14.803Z,38.93
2017-12-10T19:59:41.226Z,39.20
2017-12-10T20:02:07.674Z,39.64
2017-12-10T20:04:34.119Z,39.82
2017-12-10T20:07:00.614Z,39.95
2017-12-10T20:09:27.019Z,40.02
2017-12-10T20:11:53.464Z,40.17
2017-12-10T20:14:19.880Z,40.33
2017-12-10T20:16:46.301Z,40.38
2017-12-10T20:19:12.744Z,40.47
2017-12-10T20:21:39.162Z,40.58
2017-12-10T20:24:05.610Z,40.77
2017-12-10T20:26:32.136Z,40.66
2017-12-10T20:28:58.572Z,40.73
2017-12-10T20:31:24.997Z,40.89
2017-12-10T20:33:51.441Z,40.92
2017-12-10T20:36:17.861Z,40.91
2017-12-10T20:38:44.547Z,41.06
2017-12-10T20:41:10.957Z,41.08
2017-12-10T20:43:37.378Z,41.26
2017-12-10T20:46:03.818Z,41.21
2017-12-10T20:48:30.243Z,41.18
2017-12-10T20:50:56.679Z,41.23
2017-12-10T20:53:23.094Z,41.33
2017-12-10T20:55:49.533Z,41.33
2017-12-10T20:58:15.954Z,41.42
2017-12-10T21:00:42.374Z,41.25
2017-12-10T21:03:08.825Z,41.59
2017-12-10T21:05:35.248Z,41.65
2017-12-10T21:08:01.677Z,41.62
2017-12-10T21:10:28.125Z,41.77
2017-12-10T21:12:54.530Z,41.72
2017-12-10T21:15:20.967Z,41.76
2017-12-10T21:17:47.389Z,41.80
2017-12-10T21:20:13.832Z,41.82
2017-12-10T21:22:40.236Z,41.89
2017-12-10T21:25:06.669Z,41.86
2017-12-10T21:27:33.111Z,41.81
2017-12-10T21:29:59.529Z,41.90
2017-12-10T21:32:25.966Z,41.84
2017-12-10T21:34:52.384Z,41.86
2017-12-10T21:37:18.818Z,41.91
2017-12-10T21:39:45.249Z,41.92
2017-12-10T21:42:11.671Z,41.84
2017-12-10T21:44:38.111Z,41.86
2017-12-10T21:47:04.525Z,41.92
2017-12-10T21:49:30.953Z,41.86
2017-12-10T21:51:57.700Z,41.89
2017-12-10T21:54:24.112Z,41.92
2017-12-10T21:56:50.531Z,41.80
2017-12-10T21:59:16.963Z,41.87
2017-12-10T22:01:43.388Z,41.83
2017-12-10T22:04:09.821Z,41.86
2017-12-10T22:06:36.236Z,41.68
2017-12-10T22:09:02.672Z,41.54
2017-12-10T22:11:29.083Z,41.54
2017-12-10T22:13:55.504Z,41.60
2017-12-10T22:16:21.941Z,41.52
2017-12-10T22:18:48.363Z,41.57
2017-12-10T22:21:14.798Z,41.57
2017-12-10T22:23:41.230Z,41.58
2017-12-10T22:26:07.649Z,41.60
2017-12-10T22:28:34.088Z,41.59
2017-12-10T22:31:00.498Z,41.64
2017-12-10T22:33:26.944Z,41.62
2017-12-10T22:35:53.361Z,41.61
2017-12-10T22:38:19.797Z,41.59
2017-12-10T22:40:46.243Z,41.62
2017-12-10T22:43:12.658Z,41.65
2017-12-10T22:45:39.096Z,41.64
2017-12-10T22:48:05.510Z,41.61
2017-12-10T22:50:32.097Z,41.66
2017-12-10T22:52:58.510Z,41.63
2017-12-10T22:55:24.926Z,41.72
2017-12-10T22:57:51.365Z,41.67
2017-12-10T23:00:17.774Z,41.68
2017-12-10T23:02:44.206Z,41.60
2017-12-10T23:05:10.840Z,41.68
2017-12-10T23:07:37.252Z,41.70
2017-12-10T23:10:03.671Z,41.77
2017-12-10T23:12:30.100Z,41.70
2017-12-10T23:14:56.517Z,41.74
2017-12-10T23:17:22.930Z,41.77
2017-12-10T23:19:49.367Z,41.79
2017-12-10T23:22:15.780Z,41.78
2017-12-10T23:24:42.214Z,41.80
2017-12-10T23:27:08.626Z,41.80
2017-12-10T23:29:35.068Z,41.79
2017-12-10T23:32:01.501Z,41.86
2017-12-10T23:34:27.924Z,41.84
2017-12-10T23:36:54.355Z,41.97
2017-12-10T23:39:20.792Z,41.88
2017-12-10T23:41:47.212Z,41.88
2017-12-10T23:44:13.628Z,41.92
2017-12-10T23:46:40.056Z,41.94
2017-12-10T23:49:06.476Z,41.96
2017-12-10T23:51:32.920Z,41.96
2017-12-10T23:53:59.337Z,41.99
2017-12-10T23:56:25.756Z,41.91
2017-12-10T23:58:52.186Z,41.92
